sensor_id;sensor_type;location;lat;lon;timestamp;temperature;humidity
20481;DHT22;10399;50.754;3.366;2022-12-18T00:02:53;-1.80;99.90
20481;DHT22;10399;50.754;3.366;2022-12-18T00:05:30;-1.90;99.90
20481;DHT22;10399;50.754;3.366;2022-12-18T00:08:02;-1.90;99.90
20481;DHT22;10399;50.754;3.366;2022-12-18T00:10:35;-2.00;99.90
20481;DHT22;10399;50.754;3.366;2022-12-18T00:13:08;-2.00;99.90
20481;DHT22;10399;50.754;3.366;2022-12-18T00:15:44;-2.00;99.90
20481;DHT22;10399;50.754;3.366;2022-12-18T00:18:11;-2.00;99.90
20481;DHT22;10399;50.754;3.366;2022-12-18T00:20:44;-1.80;99.90
20481;DHT22;10399;50.754;3.366;2022-12-18T00:23:12;-1.90;99.90
20481;DHT22;10399;50.754;3.366;2022-12-18T00:25:39;-2.00;99.90
20481;DHT22;10399;50.754;3.366;2022-12-18T00:28:06;-1.90;99.90
20481;DHT22;10399;50.754;3.366;2022-12-18T00:30:34;-1.90;99.90
20481;DHT22;10399;50.754;3.366;2022-12-18T00:33:09;-2.00;99.90
20481;DHT22;10399;50.754;3.366;2022-12-18T00:35:36;-2.10;99.90
20481;DHT22;10399;50.754;3.366;2022-12-18T00:38:12;-2.10;99.90
20481;DHT22;10399;50.754;3.366;2022-12-18T00:40:45;-2.20;99.90
20481;DHT22;10399;50.754;3.366;2022-12-18T00:43:13;-2.30;99.90
20481;DHT22;10399;50.754;3.366;2022-12-18T00:45:51;-2.30;99.90
20481;DHT22;10399;50.754;3.366;2022-12-18T00:48:40;-2.30;99.90
20481;DHT22;10399;50.754;3.366;2022-12-18T00:51:07;-2.30;99.90
20481;DHT22;10399;50.754;3.366;2022-12-18T00:53:38;-2.30;99.90
20481;DHT22;10399;50.754;3.366;2022-12-18T00:56:12;-2.30;99.90
20481;DHT22;10399;50.754;3.366;2022-12-18T00:58:40;-2.20;99.90
20481;DHT22;10399;50.754;3.366;2022-12-18T01:01:15;-2.20;99.90
20481;DHT22;10399;50.754;3.366;2022-12-18T01:03:45;-2.10;99.90
20481;DHT22;10399;50.754;3.366;2022-12-18T01:06:14;-1.90;99.90
20481;DHT22;10399;50.754;3.366;2022-12-18T01:08:42;-1.70;99.90
20481;DHT22;10399;50.754;3.366;2022-12-18T01:11:21;-1.90;99.90
20481;DHT22;10399;50.754;3.366;2022-12-18T01:14:04;-1.90;99.90
20481;DHT22;10399;50.754;3.366;2022-12-18T01:16:38;-1.80;99.90
20481;DHT22;10399;50.754;3.366;2022-12-18T01:19:16;-1.80;99.90
20481;DHT22;10399;50.754;3.366;2022-12-18T01:21:49;-1.80;99.90
20481;DHT22;10399;50.754;3.366;2022-12-18T01:24:17;-1.90;99.90
20481;DHT22;10399;50.754;3.366;2022-12-18T01:27:02;-1.70;99.90
20481;DHT22;10399;50.754;3.366;2022-12-18T01:29:32;-1.70;99.90
20481;DHT22;10399;50.754;3.366;2022-12-18T01:31:59;-1.90;99.90
20481;DHT22;10399;50.754;3.366;2022-12-18T01:34:31;-2.10;99.90
20481;DHT22;10399;50.754;3.366;2022-12-18T01:36:59;-2.10;99.90
20481;DHT22;10399;50.754;3.366;2022-12-18T01:39:29;-2.00;99.90
20481;DHT22;10399;50.754;3.366;2022-12-18T01:41:56;-1.90;99.90
20481;DHT22;10399;50.754;3.366;2022-12-18T01:44:53;-2.10;99.90
20481;DHT22;10399;50.754;3.366;2022-12-18T01:47:47;-2.20;99.90
20481;DHT22;10399;50.754;3.366;2022-12-18T01:53:24;-2.10;99.90
20481;DHT22;10399;50.754;3.366;2022-12-18T01:55:59;-2.20;99.90
20481;DHT22;10399;50.754;3.366;2022-12-18T01:58:35;-2.10;99.90
20481;DHT22;10399;50.754;3.366;2022-12-18T02:01:04;-2.20;99.90
20481;DHT22;10399;50.754;3.366;2022-12-18T02:03:33;-2.20;99.90
20481;DHT22;10399;50.754;3.366;2022-12-18T02:06:09;-2.20;99.90
20481;DHT22;10399;50.754;3.366;2022-12-18T02:11:47;-2.20;99.90
20481;DHT22;10399;50.754;3.366;2022-12-18T02:14:35;-2.20;99.90
20481;DHT22;10399;50.754;3.366;2022-12-18T02:17:11;-2.30;99.90
20481;DHT22;10399;50.754;3.366;2022-12-18T02:19:55;-2.50;99.90
20481;DHT22;10399;50.754;3.366;2022-12-18T02:28:04;-2.70;99.90
20481;DHT22;10399;50.754;3.366;2022-12-18T02:30:34;-2.80;99.90
20481;DHT22;10399;50.754;3.366;2022-12-18T02:33:15;-2.80;99.90
20481;DHT22;10399;50.754;3.366;2022-12-18T02:35:53;-2.70;99.90
20481;DHT22;10399;50.754;3.366;2022-12-18T02:38:21;-2.70;99.90
20481;DHT22;10399;50.754;3.366;2022-12-18T02:40:50;-2.70;99.90
20481;DHT22;10399;50.754;3.366;2022-12-18T02:43:18;-2.70;99.90
20481;DHT22;10399;50.754;3.366;2022-12-18T02:45:57;-2.50;99.90
20481;DHT22;10399;50.754;3.366;2022-12-18T02:48:31;-2.50;99.90
20481;DHT22;10399;50.754;3.366;2022-12-18T02:51:22;-2.60;99.90
20481;DHT22;10399;50.754;3.366;2022-12-18T02:54:01;-2.50;99.90
20481;DHT22;10399;50.754;3.366;2022-12-18T02:56:49;-2.50;99.90
20481;DHT22;10399;50.754;3.366;2022-12-18T03:02:36;-2.60;99.90
20481;DHT22;10399;50.754;3.366;2022-12-18T03:05:41;-2.50;99.90
20481;DHT22;10399;50.754;3.366;2022-12-18T03:08:23;-2.50;99.90
20481;DHT22;10399;50.754;3.366;2022-12-18T03:11:13;-2.50;99.90
20481;DHT22;10399;50.754;3.366;2022-12-18T03:14:01;-2.50;99.90
20481;DHT22;10399;50.754;3.366;2022-12-18T03:16:57;-2.50;99.90
20481;DHT22;10399;50.754;3.366;2022-12-18T03:19:59;-2.40;99.90
20481;DHT22;10399;50.754;3.366;2022-12-18T03:22:53;-2.40;99.90
20481;DHT22;10399;50.754;3.366;2022-12-18T03:25:25;-2.30;99.90
20481;DHT22;10399;50.754;3.366;2022-12-18T03:27:56;-2.30;99.90
20481;DHT22;10399;50.754;3.366;2022-12-18T03:30:28;-2.30;99.90
20481;DHT22;10399;50.754;3.366;2022-12-18T03:33:34;-2.40;99.90
20481;DHT22;10399;50.754;3.366;2022-12-18T03:36:14;-2.30;99.90
20481;DHT22;10399;50.754;3.366;2022-12-18T03:38:42;-2.40;99.90
20481;DHT22;10399;50.754;3.366;2022-12-18T03:41:21;-2.30;99.90
20481;DHT22;10399;50.754;3.366;2022-12-18T03:44:31;-2.40;99.90
20481;DHT22;10399;50.754;3.366;2022-12-18T03:47:20;-2.30;99.90
20481;DHT22;10399;50.754;3.366;2022-12-18T03:52:55;-2.20;99.90
20481;DHT22;10399;50.754;3.366;2022-12-18T03:55:25;-2.40;99.90
20481;DHT22;10399;50.754;3.366;2022-12-18T03:57:55;-2.30;99.90
20481;DHT22;10399;50.754;3.366;2022-12-18T04:00:32;-2.30;99.90
20481;DHT22;10399;50.754;3.366;2022-12-18T04:03:00;-2.30;99.90
20481;DHT22;10399;50.754;3.366;2022-12-18T04:05:30;-2.20;99.90
20481;DHT22;10399;50.754;3.366;2022-12-18T04:07:59;-2.30;99.90
20481;DHT22;10399;50.754;3.366;2022-12-18T04:10:28;-2.20;99.90
20481;DHT22;10399;50.754;3.366;2022-12-18T04:12:59;-2.20;99.90
20481;DHT22;10399;50.754;3.366;2022-12-18T04:15:26;-2.20;99.90
20481;DHT22;10399;50.754;3.366;2022-12-18T04:17:55;-2.20;99.90
20481;DHT22;10399;50.754;3.366;2022-12-18T04:20:23;-2.20;99.90
20481;DHT22;10399;50.754;3.366;2022-12-18T04:22:50;-2.30;99.90
20481;DHT22;10399;50.754;3.366;2022-12-18T04:25:17;-2.30;99.90
20481;DHT22;10399;50.754;3.366;2022-12-18T04:27:45;-2.30;99.90
20481;DHT22;10399;50.754;3.366;2022-12-18T04:30:12;-2.20;99.90
20481;DHT22;10399;50.754;3.366;2022-12-18T04:32:42;-2.20;99.90
20481;DHT22;10399;50.754;3.366;2022-12-18T04:35:18;-2.30;99.90
20481;DHT22;10399;50.754;3.366;2022-12-18T04:37:53;-2.30;99.90
20481;DHT22;10399;50.754;3.366;2022-12-18T04:40:22;-2.20;99.90
20481;DHT22;10399;50.754;3.366;2022-12-18T04:42:50;-2.30;99.90
20481;DHT22;10399;50.754;3.366;2022-12-18T04:45:22;-2.30;99.90
20481;DHT22;10399;50.754;3.366;2022-12-18T04:47:50;-2.30;99.90
20481;DHT22;10399;50.754;3.366;2022-12-18T04:50:17;-2.40;99.90
20481;DHT22;10399;50.754;3.366;2022-12-18T04:52:44;-2.40;99.90
20481;DHT22;10399;50.754;3.366;2022-12-18T04:55:11;-2.40;99.90
20481;DHT22;10399;50.754;3.366;2022-12-18T04:57:42;-2.30;99.90
20481;DHT22;10399;50.754;3.366;2022-12-18T05:00:09;-2.30;99.90
20481;DHT22;10399;50.754;3.366;2022-12-18T05:02:37;-2.40;99.90
20481;DHT22;10399;50.754;3.366;2022-12-18T05:05:04;-2.50;99.90
20481;DHT22;10399;50.754;3.366;2022-12-18T05:07:37;-2.40;99.90
20481;DHT22;10399;50.754;3.366;2022-12-18T05:10:10;-2.50;99.90
20481;DHT22;10399;50.754;3.366;2022-12-18T05:12:37;-2.50;99.90
20481;DHT22;10399;50.754;3.366;2022-12-18T05:15:30;-2.50;99.90
20481;DHT22;10399;50.754;3.366;2022-12-18T05:18:11;-2.40;99.90
20481;DHT22;10399;50.754;3.366;2022-12-18T05:20:38;-2.50;99.90
20481;DHT22;10399;50.754;3.366;2022-12-18T05:23:06;-2.50;99.90
20481;DHT22;10399;50.754;3.366;2022-12-18T05:25:33;-2.50;99.90
20481;DHT22;10399;50.754;3.366;2022-12-18T05:28:03;-2.50;99.90
20481;DHT22;10399;50.754;3.366;2022-12-18T05:30:56;-2.40;99.90
20481;DHT22;10399;50.754;3.366;2022-12-18T05:33:25;-2.50;99.90
20481;DHT22;10399;50.754;3.366;2022-12-18T05:36:05;-2.50;99.90
20481;DHT22;10399;50.754;3.366;2022-12-18T05:38:44;-2.40;99.90
20481;DHT22;10399;50.754;3.366;2022-12-18T05:41:11;-2.40;99.90
20481;DHT22;10399;50.754;3.366;2022-12-18T05:43:39;-2.50;99.90
20481;DHT22;10399;50.754;3.366;2022-12-18T05:46:12;-2.50;99.90
20481;DHT22;10399;50.754;3.366;2022-12-18T05:48:50;-2.60;99.90
20481;DHT22;10399;50.754;3.366;2022-12-18T05:51:28;-2.50;99.90
20481;DHT22;10399;50.754;3.366;2022-12-18T05:54:09;-2.60;99.90
20481;DHT22;10399;50.754;3.366;2022-12-18T05:56:44;-2.60;99.90
20481;DHT22;10399;50.754;3.366;2022-12-18T05:59:24;-2.60;99.90
20481;DHT22;10399;50.754;3.366;2022-12-18T06:02:00;-2.60;99.90
20481;DHT22;10399;50.754;3.366;2022-12-18T06:04:29;-2.60;99.90
20481;DHT22;10399;50.754;3.366;2022-12-18T06:07:02;-2.60;99.90
20481;DHT22;10399;50.754;3.366;2022-12-18T06:09:55;-2.60;99.90
20481;DHT22;10399;50.754;3.366;2022-12-18T06:12:36;-2.60;99.90
20481;DHT22;10399;50.754;3.366;2022-12-18T06:15:07;-2.60;99.90
20481;DHT22;10399;50.754;3.366;2022-12-18T06:17:37;-2.50;99.90
20481;DHT22;10399;50.754;3.366;2022-12-18T06:20:13;-2.60;99.90
20481;DHT22;10399;50.754;3.366;2022-12-18T06:23:33;-2.60;99.90
20481;DHT22;10399;50.754;3.366;2022-12-18T06:26:41;-2.60;99.90
20481;DHT22;10399;50.754;3.366;2022-12-18T06:29:11;-2.40;99.90
20481;DHT22;10399;50.754;3.366;2022-12-18T06:31:52;-2.40;99.90
20481;DHT22;10399;50.754;3.366;2022-12-18T06:34:22;-2.40;99.90
20481;DHT22;10399;50.754;3.366;2022-12-18T06:36:54;-2.50;99.90
20481;DHT22;10399;50.754;3.366;2022-12-18T06:42:34;-2.40;99.90
20481;DHT22;10399;50.754;3.366;2022-12-18T06:45:02;-2.40;99.90
20481;DHT22;10399;50.754;3.366;2022-12-18T06:47:29;-2.30;99.90
20481;DHT22;10399;50.754;3.366;2022-12-18T06:50:29;-2.40;99.90
20481;DHT22;10399;50.754;3.366;2022-12-18T06:53:12;-2.10;99.90
20481;DHT22;10399;50.754;3.366;2022-12-18T06:55:39;-2.20;99.90
20481;DHT22;10399;50.754;3.366;2022-12-18T06:58:07;-2.30;99.90
20481;DHT22;10399;50.754;3.366;2022-12-18T07:01:02;-2.30;99.90
20481;DHT22;10399;50.754;3.366;2022-12-18T07:03:33;-2.30;99.90
20481;DHT22;10399;50.754;3.366;2022-12-18T07:06:03;-2.40;99.90
20481;DHT22;10399;50.754;3.366;2022-12-18T07:08:31;-2.40;99.90
20481;DHT22;10399;50.754;3.366;2022-12-18T07:11:10;-2.40;99.90
20481;DHT22;10399;50.754;3.366;2022-12-18T07:13:37;-2.50;99.90
20481;DHT22;10399;50.754;3.366;2022-12-18T07:16:10;-2.40;99.90
20481;DHT22;10399;50.754;3.366;2022-12-18T07:18:48;-2.40;99.90
20481;DHT22;10399;50.754;3.366;2022-12-18T07:21:19;-2.50;99.90
20481;DHT22;10399;50.754;3.366;2022-12-18T07:23:46;-2.60;99.90
20481;DHT22;10399;50.754;3.366;2022-12-18T07:26:20;-2.60;99.90
20481;DHT22;10399;50.754;3.366;2022-12-18T07:28:50;-2.60;99.90
20481;DHT22;10399;50.754;3.366;2022-12-18T07:31:26;-2.60;99.90
20481;DHT22;10399;50.754;3.366;2022-12-18T07:36:39;-2.60;99.90
20481;DHT22;10399;50.754;3.366;2022-12-18T07:39:07;-2.40;99.90
20481;DHT22;10399;50.754;3.366;2022-12-18T07:41:37;-2.40;99.90
20481;DHT22;10399;50.754;3.366;2022-12-18T07:44:15;-2.40;99.90
20481;DHT22;10399;50.754;3.366;2022-12-18T07:46:47;-2.10;99.90
20481;DHT22;10399;50.754;3.366;2022-12-18T07:49:25;-1.80;99.90
20481;DHT22;10399;50.754;3.366;2022-12-18T07:51:54;-1.80;99.90
20481;DHT22;10399;50.754;3.366;2022-12-18T07:54:23;-2.00;99.90
20481;DHT22;10399;50.754;3.366;2022-12-18T07:56:53;-2.00;99.90
20481;DHT22;10399;50.754;3.366;2022-12-18T07:59:20;-2.00;99.90
20481;DHT22;10399;50.754;3.366;2022-12-18T08:01:47;-2.00;99.90
20481;DHT22;10399;50.754;3.366;2022-12-18T08:04:15;-1.90;99.90
20481;DHT22;10399;50.754;3.366;2022-12-18T08:06:42;-2.00;99.90
20481;DHT22;10399;50.754;3.366;2022-12-18T08:09:14;-2.00;99.90
20481;DHT22;10399;50.754;3.366;2022-12-18T08:11:41;-1.80;99.90
20481;DHT22;10399;50.754;3.366;2022-12-18T08:14:10;-1.80;99.90
20481;DHT22;10399;50.754;3.366;2022-12-18T08:16:37;-1.70;99.90
20481;DHT22;10399;50.754;3.366;2022-12-18T08:19:07;-1.60;99.90
20481;DHT22;10399;50.754;3.366;2022-12-18T08:21:34;-1.70;99.90
20481;DHT22;10399;50.754;3.366;2022-12-18T08:24:01;-1.70;99.90
20481;DHT22;10399;50.754;3.366;2022-12-18T08:26:30;-1.60;99.90
20481;DHT22;10399;50.754;3.366;2022-12-18T08:28:59;-1.70;99.90
20481;DHT22;10399;50.754;3.366;2022-12-18T08:31:27;-1.50;99.90
20481;DHT22;10399;50.754;3.366;2022-12-18T08:33:56;-1.50;99.90
20481;DHT22;10399;50.754;3.366;2022-12-18T08:36:23;-1.20;99.90
20481;DHT22;10399;50.754;3.366;2022-12-18T08:38:53;-1.30;99.90
20481;DHT22;10399;50.754;3.366;2022-12-18T08:41:20;-1.30;99.90
20481;DHT22;10399;50.754;3.366;2022-12-18T08:43:50;-1.10;99.90
20481;DHT22;10399;50.754;3.366;2022-12-18T08:46:58;-1.30;99.90
20481;DHT22;10399;50.754;3.366;2022-12-18T08:49:26;-1.20;99.90
20481;DHT22;10399;50.754;3.366;2022-12-18T08:51:55;-1.20;99.90
20481;DHT22;10399;50.754;3.366;2022-12-18T08:54:27;-1.30;99.90
20481;DHT22;10399;50.754;3.366;2022-12-18T08:56:54;-1.20;99.90
20481;DHT22;10399;50.754;3.366;2022-12-18T08:59:24;-1.30;99.90
20481;DHT22;10399;50.754;3.366;2022-12-18T09:01:53;-1.20;99.90
20481;DHT22;10399;50.754;3.366;2022-12-18T09:04:26;-1.10;99.90
20481;DHT22;10399;50.754;3.366;2022-12-18T09:06:53;-1.00;99.90
20481;DHT22;10399;50.754;3.366;2022-12-18T09:09:20;-1.00;99.90
20481;DHT22;10399;50.754;3.366;2022-12-18T09:11:58;-1.10;99.90
20481;DHT22;10399;50.754;3.366;2022-12-18T09:17:49;-1.20;99.90
20481;DHT22;10399;50.754;3.366;2022-12-18T09:20:17;-1.00;99.90
20481;DHT22;10399;50.754;3.366;2022-12-18T09:22:44;-0.90;99.90
20481;DHT22;10399;50.754;3.366;2022-12-18T09:25:36;-0.80;99.90
20481;DHT22;10399;50.754;3.366;2022-12-18T09:28:26;-0.90;99.90
20481;DHT22;10399;50.754;3.366;2022-12-18T09:31:33;-0.60;99.90
20481;DHT22;10399;50.754;3.366;2022-12-18T09:34:16;-0.60;99.90
20481;DHT22;10399;50.754;3.366;2022-12-18T09:36:43;-0.50;99.90
20481;DHT22;10399;50.754;3.366;2022-12-18T09:39:37;-0.40;99.90
20481;DHT22;10399;50.754;3.366;2022-12-18T09:43:06;-0.30;99.90
20481;DHT22;10399;50.754;3.366;2022-12-18T09:46:11;-0.50;99.90
20481;DHT22;10399;50.754;3.366;2022-12-18T09:48:50;-0.50;99.90
20481;DHT22;10399;50.754;3.366;2022-12-18T09:51:19;-0.40;99.90
20481;DHT22;10399;50.754;3.366;2022-12-18T09:54:03;-0.50;99.90
20481;DHT22;10399;50.754;3.366;2022-12-18T09:56:38;-0.40;99.90
20481;DHT22;10399;50.754;3.366;2022-12-18T09:59:23;-0.40;99.90
20481;DHT22;10399;50.754;3.366;2022-12-18T10:01:51;-0.20;99.90
20481;DHT22;10399;50.754;3.366;2022-12-18T10:04:21;-0.20;99.90
20481;DHT22;10399;50.754;3.366;2022-12-18T10:06:58;-0.10;99.90
20481;DHT22;10399;50.754;3.366;2022-12-18T10:12:49;0.00;99.90
20481;DHT22;10399;50.754;3.366;2022-12-18T10:15:59;0.10;99.90
20481;DHT22;10399;50.754;3.366;2022-12-18T10:18:53;0.20;99.90
20481;DHT22;10399;50.754;3.366;2022-12-18T10:21:43;0.30;99.90
20481;DHT22;10399;50.754;3.366;2022-12-18T10:27:26;0.20;99.90
20481;DHT22;10399;50.754;3.366;2022-12-18T10:30:20;0.10;99.90
20481;DHT22;10399;50.754;3.366;2022-12-18T10:33:21;0.10;99.90
20481;DHT22;10399;50.754;3.366;2022-12-18T10:35:57;0.20;99.90
20481;DHT22;10399;50.754;3.366;2022-12-18T10:38:31;0.00;99.90
20481;DHT22;10399;50.754;3.366;2022-12-18T10:44:27;0.00;99.90
20481;DHT22;10399;50.754;3.366;2022-12-18T10:47:05;0.00;99.90
20481;DHT22;10399;50.754;3.366;2022-12-18T10:49:49;0.00;99.90
20481;DHT22;10399;50.754;3.366;2022-12-18T10:52:20;0.10;99.90
20481;DHT22;10399;50.754;3.366;2022-12-18T10:54:56;0.00;99.90
20481;DHT22;10399;50.754;3.366;2022-12-18T10:57:35;0.20;99.90
20481;DHT22;10399;50.754;3.366;2022-12-18T11:00:41;0.20;99.90
20481;DHT22;10399;50.754;3.366;2022-12-18T11:04:15;0.20;99.90
20481;DHT22;10399;50.754;3.366;2022-12-18T11:06:29;0.20;99.90
20481;DHT22;10399;50.754;3.366;2022-12-18T11:09:33;0.10;99.90
20481;DHT22;10399;50.754;3.366;2022-12-18T11:12:15;0.20;99.90
20481;DHT22;10399;50.754;3.366;2022-12-18T11:14:53;0.10;99.90
20481;DHT22;10399;50.754;3.366;2022-12-18T11:17:43;0.10;99.90
20481;DHT22;10399;50.754;3.366;2022-12-18T11:20:27;0.10;99.90
20481;DHT22;10399;50.754;3.366;2022-12-18T11:23:00;0.10;99.90
20481;DHT22;10399;50.754;3.366;2022-12-18T11:25:31;0.20;99.90
20481;DHT22;10399;50.754;3.366;2022-12-18T11:31:25;0.50;99.90
20481;DHT22;10399;50.754;3.366;2022-12-18T11:34:23;0.50;99.90
20481;DHT22;10399;50.754;3.366;2022-12-18T11:37:00;0.40;99.90
20481;DHT22;10399;50.754;3.366;2022-12-18T11:39:38;0.30;99.90
20481;DHT22;10399;50.754;3.366;2022-12-18T11:42:22;0.40;99.90
20481;DHT22;10399;50.754;3.366;2022-12-18T11:45:00;0.30;99.90
20481;DHT22;10399;50.754;3.366;2022-12-18T11:51:00;0.50;99.90
20481;DHT22;10399;50.754;3.366;2022-12-18T11:53:30;0.50;99.90
20481;DHT22;10399;50.754;3.366;2022-12-18T11:56:43;0.60;99.90
20481;DHT22;10399;50.754;3.366;2022-12-18T11:59:55;0.60;99.90
20481;DHT22;10399;50.754;3.366;2022-12-18T12:06:26;0.50;99.90
20481;DHT22;10399;50.754;3.366;2022-12-18T12:09:41;0.70;99.90
20481;DHT22;10399;50.754;3.366;2022-12-18T12:38:44;0.60;99.90
20481;DHT22;10399;50.754;3.366;2022-12-18T12:42:52;0.60;99.90
20481;DHT22;10399;50.754;3.366;2022-12-18T12:45:50;0.50;99.90
20481;DHT22;10399;50.754;3.366;2022-12-18T12:51:37;0.60;99.90
20481;DHT22;10399;50.754;3.366;2022-12-18T12:54:53;0.50;99.90
20481;DHT22;10399;50.754;3.366;2022-12-18T12:57:50;0.60;99.90
20481;DHT22;10399;50.754;3.366;2022-12-18T13:04:19;0.30;99.90
20481;DHT22;10399;50.754;3.366;2022-12-18T13:13:36;0.60;99.90
20481;DHT22;10399;50.754;3.366;2022-12-18T13:16:44;0.70;99.90
20481;DHT22;10399;50.754;3.366;2022-12-18T13:19:47;0.50;99.90
20481;DHT22;10399;50.754;3.366;2022-12-18T13:22:56;0.60;99.90
20481;DHT22;10399;50.754;3.366;2022-12-18T13:31:01;0.40;99.90
20481;DHT22;10399;50.754;3.366;2022-12-18T13:33:40;0.60;99.90
20481;DHT22;10399;50.754;3.366;2022-12-18T13:36:33;0.60;99.90
20481;DHT22;10399;50.754;3.366;2022-12-18T13:45:00;0.90;99.90
20481;DHT22;10399;50.754;3.366;2022-12-18T13:47:36;0.90;99.90
20481;DHT22;10399;50.754;3.366;2022-12-18T13:50:25;0.90;99.90
20481;DHT22;10399;50.754;3.366;2022-12-18T13:53:03;0.80;99.90
20481;DHT22;10399;50.754;3.366;2022-12-18T13:55:32;0.90;99.90
20481;DHT22;10399;50.754;3.366;2022-12-18T13:58:04;1.00;99.90
20481;DHT22;10399;50.754;3.366;2022-12-18T14:00:33;0.80;99.90
20481;DHT22;10399;50.754;3.366;2022-12-18T14:03:00;0.90;99.90
20481;DHT22;10399;50.754;3.366;2022-12-18T14:05:29;0.90;99.90
20481;DHT22;10399;50.754;3.366;2022-12-18T14:08:04;0.80;99.90
20481;DHT22;10399;50.754;3.366;2022-12-18T14:10:41;0.80;99.90
20481;DHT22;10399;50.754;3.366;2022-12-18T14:13:42;0.80;99.90
20481;DHT22;10399;50.754;3.366;2022-12-18T14:16:15;0.90;99.90
20481;DHT22;10399;50.754;3.366;2022-12-18T14:18:51;0.80;99.90
20481;DHT22;10399;50.754;3.366;2022-12-18T14:21:22;0.90;99.90
20481;DHT22;10399;50.754;3.366;2022-12-18T14:27:25;1.00;99.90
20481;DHT22;10399;50.754;3.366;2022-12-18T14:29:52;0.90;99.90
20481;DHT22;10399;50.754;3.366;2022-12-18T14:32:20;0.90;99.90
20481;DHT22;10399;50.754;3.366;2022-12-18T14:34:52;0.90;99.90
20481;DHT22;10399;50.754;3.366;2022-12-18T14:37:25;1.00;99.90
20481;DHT22;10399;50.754;3.366;2022-12-18T14:40:03;0.90;99.90
20481;DHT22;10399;50.754;3.366;2022-12-18T14:42:37;1.00;99.90
20481;DHT22;10399;50.754;3.366;2022-12-18T14:45:45;1.20;99.90
20481;DHT22;10399;50.754;3.366;2022-12-18T14:51:06;1.30;99.90
20481;DHT22;10399;50.754;3.366;2022-12-18T14:56:34;1.50;99.90
20481;DHT22;10399;50.754;3.366;2022-12-18T14:59:13;1.40;99.90
20481;DHT22;10399;50.754;3.366;2022-12-18T15:04:33;1.60;99.90
20481;DHT22;10399;50.754;3.366;2022-12-18T15:07:16;1.50;99.90
20481;DHT22;10399;50.754;3.366;2022-12-18T15:10:18;1.50;99.90
20481;DHT22;10399;50.754;3.366;2022-12-18T15:15:57;1.50;99.90
20481;DHT22;10399;50.754;3.366;2022-12-18T15:18:35;1.40;99.90
20481;DHT22;10399;50.754;3.366;2022-12-18T15:21:10;1.50;99.90
20481;DHT22;10399;50.754;3.366;2022-12-18T15:23:47;1.40;99.90
20481;DHT22;10399;50.754;3.366;2022-12-18T15:26:18;1.60;99.90
20481;DHT22;10399;50.754;3.366;2022-12-18T15:28:55;1.70;99.90
20481;DHT22;10399;50.754;3.366;2022-12-18T15:31:34;1.60;99.90
20481;DHT22;10399;50.754;3.366;2022-12-18T15:36:35;1.60;99.90
20481;DHT22;10399;50.754;3.366;2022-12-18T15:39:04;1.70;99.90
20481;DHT22;10399;50.754;3.366;2022-12-18T15:41:35;1.40;99.90
20481;DHT22;10399;50.754;3.366;2022-12-18T15:44:26;1.50;99.90
20481;DHT22;10399;50.754;3.366;2022-12-18T15:46:56;1.50;99.90
20481;DHT22;10399;50.754;3.366;2022-12-18T15:49:24;1.60;99.90
20481;DHT22;10399;50.754;3.366;2022-12-18T15:51:59;1.50;99.90
20481;DHT22;10399;50.754;3.366;2022-12-18T15:54:50;1.50;99.90
20481;DHT22;10399;50.754;3.366;2022-12-18T15:57:42;1.70;99.90
20481;DHT22;10399;50.754;3.366;2022-12-18T16:00:12;1.70;99.90
20481;DHT22;10399;50.754;3.366;2022-12-18T16:02:39;1.70;99.90
20481;DHT22;10399;50.754;3.366;2022-12-18T16:05:19;1.80;99.90
20481;DHT22;10399;50.754;3.366;2022-12-18T16:07:47;1.80;99.90
20481;DHT22;10399;50.754;3.366;2022-12-18T16:10:15;1.80;99.90
20481;DHT22;10399;50.754;3.366;2022-12-18T16:12:45;1.70;99.90
20481;DHT22;10399;50.754;3.366;2022-12-18T16:15:16;1.80;99.90
20481;DHT22;10399;50.754;3.366;2022-12-18T16:17:51;1.80;99.90
20481;DHT22;10399;50.754;3.366;2022-12-18T16:20:34;1.80;99.90
20481;DHT22;10399;50.754;3.366;2022-12-18T16:23:04;1.80;99.90
20481;DHT22;10399;50.754;3.366;2022-12-18T16:25:31;1.80;99.90
20481;DHT22;10399;50.754;3.366;2022-12-18T16:27:58;1.90;99.90
20481;DHT22;10399;50.754;3.366;2022-12-18T16:30:28;1.90;99.90
20481;DHT22;10399;50.754;3.366;2022-12-18T16:33:04;1.80;99.90
20481;DHT22;10399;50.754;3.366;2022-12-18T16:35:37;2.00;99.90
20481;DHT22;10399;50.754;3.366;2022-12-18T16:38:05;2.10;99.90
20481;DHT22;10399;50.754;3.366;2022-12-18T16:40:32;2.20;99.90
20481;DHT22;10399;50.754;3.366;2022-12-18T16:43:20;2.10;99.90
20481;DHT22;10399;50.754;3.366;2022-12-18T16:45:48;2.00;99.90
20481;DHT22;10399;50.754;3.366;2022-12-18T16:48:17;2.20;99.90
20481;DHT22;10399;50.754;3.366;2022-12-18T16:50:46;2.10;99.90
20481;DHT22;10399;50.754;3.366;2022-12-18T16:53:14;2.20;99.90
20481;DHT22;10399;50.754;3.366;2022-12-18T16:55:41;2.20;99.90
20481;DHT22;10399;50.754;3.366;2022-12-18T16:58:08;2.20;99.90
20481;DHT22;10399;50.754;3.366;2022-12-18T17:00:37;2.10;99.90
20481;DHT22;10399;50.754;3.366;2022-12-18T17:03:07;2.10;99.90
20481;DHT22;10399;50.754;3.366;2022-12-18T17:05:34;2.20;99.90
20481;DHT22;10399;50.754;3.366;2022-12-18T17:08:02;2.30;99.90
20481;DHT22;10399;50.754;3.366;2022-12-18T17:10:30;2.30;99.90
20481;DHT22;10399;50.754;3.366;2022-12-18T17:13:00;2.20;99.90
20481;DHT22;10399;50.754;3.366;2022-12-18T17:15:28;2.30;99.90
20481;DHT22;10399;50.754;3.366;2022-12-18T17:17:55;2.10;99.90
20481;DHT22;10399;50.754;3.366;2022-12-18T17:20:30;2.10;99.90
20481;DHT22;10399;50.754;3.366;2022-12-18T17:23:00;2.10;99.90
20481;DHT22;10399;50.754;3.366;2022-12-18T17:25:30;2.20;99.90
20481;DHT22;10399;50.754;3.366;2022-12-18T17:28:00;2.20;99.90
20481;DHT22;10399;50.754;3.366;2022-12-18T17:30:28;2.20;99.90
20481;DHT22;10399;50.754;3.366;2022-12-18T17:32:56;2.20;99.90
20481;DHT22;10399;50.754;3.366;2022-12-18T17:35:34;2.20;99.90
20481;DHT22;10399;50.754;3.366;2022-12-18T17:38:08;2.20;99.90
20481;DHT22;10399;50.754;3.366;2022-12-18T17:40:37;2.10;99.90
20481;DHT22;10399;50.754;3.366;2022-12-18T17:43:15;2.10;99.90
20481;DHT22;10399;50.754;3.366;2022-12-18T17:45:45;2.00;99.90
20481;DHT22;10399;50.754;3.366;2022-12-18T17:48:19;2.10;99.90
20481;DHT22;10399;50.754;3.366;2022-12-18T17:50:46;2.20;99.90
20481;DHT22;10399;50.754;3.366;2022-12-18T17:53:16;2.20;99.90
20481;DHT22;10399;50.754;3.366;2022-12-18T17:55:57;2.30;99.90
20481;DHT22;10399;50.754;3.366;2022-12-18T17:58:27;2.40;99.90
20481;DHT22;10399;50.754;3.366;2022-12-18T18:00:57;2.40;99.90
20481;DHT22;10399;50.754;3.366;2022-12-18T18:03:27;2.40;99.90
20481;DHT22;10399;50.754;3.366;2022-12-18T18:06:02;2.50;99.90
20481;DHT22;10399;50.754;3.366;2022-12-18T18:08:33;2.50;99.90
20481;DHT22;10399;50.754;3.366;2022-12-18T18:11:13;2.50;99.90
20481;DHT22;10399;50.754;3.366;2022-12-18T18:14:06;2.50;99.90
20481;DHT22;10399;50.754;3.366;2022-12-18T18:16:39;2.40;99.90
20481;DHT22;10399;50.754;3.366;2022-12-18T18:19:16;2.50;99.90
20481;DHT22;10399;50.754;3.366;2022-12-18T18:21:46;2.40;99.90
20481;DHT22;10399;50.754;3.366;2022-12-18T18:24:16;2.20;99.90
20481;DHT22;10399;50.754;3.366;2022-12-18T18:26:44;2.30;99.90
20481;DHT22;10399;50.754;3.366;2022-12-18T18:29:18;2.30;99.90
20481;DHT22;10399;50.754;3.366;2022-12-18T18:31:46;2.40;99.90
20481;DHT22;10399;50.754;3.366;2022-12-18T18:34:22;2.50;99.90